Time;durP1;ratioP1;P1;durP2;ratioP2;P2;SDS_P1;SDS_P2;PMS_P1;PMS_P2;Temp;Humidity;BMP_temperature;BMP_pressure;BME280_temperature;BME280_humidity;BME280_pressure;Samples;Min_cycle;Max_cycle;Signal;HPM_P1;HPM_P2
2021/09/05 00:00:41;;;;;;;49.38;27.33;;;18.60;99.90;;;;;;5010640;28;20219;-80
2021/09/05 00:03:07;;;;;;;55.25;28.08;;;18.60;99.90;;;;;;5011348;28;20173;-81
2021/09/05 00:05:32;;;;;;;63.78;28.50;;;18.60;99.90;;;;;;5012798;28;20617;-80
2021/09/05 00:07:58;;;;;;;52.60;26.25;;;18.50;99.90;;;;;;5012432;28;20241;-80
2021/09/05 00:10:24;;;;;;;56.55;27.40;;;18.50;99.90;;;;;;5012793;28;20231;-81
2021/09/05 00:12:49;;;;;;;45.97;26.05;;;18.60;99.90;;;;;;5011422;28;20164;-80
2021/09/05 00:15:15;;;;;;;48.70;27.20;;;18.50;99.90;;;;;;5013112;28;20175;-81
2021/09/05 00:17:41;;;;;;;48.38;27.77;;;18.40;99.90;;;;;;5011427;28;20533;-81
2021/09/05 00:20:07;;;;;;;51.95;28.38;;;18.40;99.90;;;;;;5011385;28;20207;-81
2021/09/05 00:22:33;;;;;;;51.58;27.13;;;18.40;99.90;;;;;;5013342;28;20195;-81
2021/09/05 00:24:59;;;;;;;51.83;28.20;;;18.50;99.90;;;;;;5011923;28;20212;-80
2021/09/05 00:27:25;;;;;;;57.20;28.33;;;18.60;99.90;;;;;;5011323;28;20223;-80
2021/09/05 00:29:50;;;;;;;52.92;27.70;;;18.70;99.90;;;;;;5011720;28;20227;-80
2021/09/05 00:32:16;;;;;;;57.25;27.75;;;18.60;99.90;;;;;;5013000;28;20176;-80
2021/09/05 00:34:42;;;;;;;52.75;27.17;;;18.60;99.90;;;;;;5011491;28;20227;-80
2021/09/05 00:37:07;;;;;;;56.30;27.08;;;18.50;99.90;;;;;;5011891;28;20219;-80
2021/09/05 00:39:33;;;;;;;48.13;27.15;;;18.50;99.90;;;;;;5014003;28;20288;-79
2021/09/05 00:41:59;;;;;;;53.28;28.02;;;18.30;99.90;;;;;;5012605;28;20259;-82
2021/09/05 00:44:25;;;;;;;57.35;28.73;;;18.20;99.90;;;;;;5031747;28;20160;-80
2021/09/05 00:46:50;;;;;;;59.22;28.08;;;18.20;99.90;;;;;;5029854;28;20195;-81
2021/09/05 00:49:16;;;;;;;58.00;28.52;;;18.30;99.90;;;;;;5013637;28;20287;-81
2021/09/05 00:51:43;;;;;;;55.83;28.35;;;18.40;99.90;;;;;;5012329;28;20169;-81
2021/09/05 00:54:11;;;;;;;54.90;27.60;;;18.40;99.90;;;;;;5013102;28;20172;-80
2021/09/05 00:56:38;;;;;;;48.83;27.70;;;18.10;99.90;;;;;;5011905;28;20625;-81
2021/09/05 00:59:17;;;;;;;52.28;29.20;;;17.90;99.90;;;;;;5012742;28;20208;-81
2021/09/05 01:01:43;;;;;;;57.58;27.25;;;17.70;99.90;;;;;;5012484;28;20169;-81
2021/09/05 01:04:09;;;;;;;54.95;28.30;;;17.60;99.90;;;;;;5016802;28;20183;-81
2021/09/05 01:06:38;;;;;;;63.05;29.27;;;17.90;99.90;;;;;;5026113;28;20169;-81
2021/09/05 01:09:04;;;;;;;67.80;29.30;;;18.00;99.90;;;;;;5022415;28;20242;-81
2021/09/05 01:11:32;;;;;;;63.28;31.33;;;17.90;99.90;;;;;;5021994;28;20185;-81
2021/09/05 01:13:58;;;;;;;52.03;27.80;;;18.00;99.90;;;;;;5019548;28;20200;-81
2021/09/05 01:16:30;;;;;;;55.17;29.50;;;17.80;99.90;;;;;;5017765;28;20250;-81
2021/09/05 01:19:17;;;;;;;49.13;27.85;;;17.70;99.90;;;;;;5014771;28;20541;-81
2021/09/05 01:21:44;;;;;;;61.75;30.05;;;17.70;99.90;;;;;;5015682;28;20191;-81
2021/09/05 01:24:11;;;;;;;56.60;30.25;;;17.80;99.90;;;;;;5015794;28;20164;-81
2021/09/05 01:26:39;;;;;;;51.08;27.77;;;17.80;99.90;;;;;;5014522;28;20200;-81
2021/09/05 01:29:06;;;;;;;60.05;29.38;;;17.90;99.90;;;;;;5014513;28;20188;-81
2021/09/05 01:31:47;;;;;;;61.65;30.60;;;17.80;99.90;;;;;;5016004;28;20176;-81
2021/09/05 01:34:15;;;;;;;61.88;29.77;;;17.80;99.90;;;;;;5014224;28;20160;-81
2021/09/05 01:36:42;;;;;;;66.85;30.42;;;17.80;99.90;;;;;;5014205;28;20172;-81
2021/09/05 01:39:10;;;;;;;55.42;29.83;;;17.70;99.90;;;;;;5013805;28;20584;-81
2021/09/05 01:41:35;;;;;;;58.38;29.02;;;17.70;99.90;;;;;;5014162;28;20191;-81
2021/09/05 01:44:04;;;;;;;58.17;29.52;;;17.70;99.90;;;;;;5013966;28;20176;-81
2021/09/05 01:46:30;;;;;;;65.60;30.08;;;17.60;99.90;;;;;;5015423;28;20187;-80
2021/09/05 01:48:56;;;;;;;58.10;28.50;;;17.60;99.90;;;;;;5014023;28;20278;-81
2021/09/05 01:51:22;;;;;;;70.15;30.65;;;17.40;99.90;;;;;;5015353;28;20255;-81
2021/09/05 01:53:47;;;;;;;58.70;28.52;;;17.60;99.90;;;;;;5014014;28;20169;-81
2021/09/05 01:56:13;;;;;;;58.30;29.05;;;17.60;99.90;;;;;;5013981;28;20176;-81
2021/09/05 01:58:39;;;;;;;57.22;30.13;;;17.50;99.90;;;;;;5014493;28;20196;-81
2021/09/05 02:01:05;;;;;;;65.00;30.75;;;17.50;99.90;;;;;;5014609;28;20247;-81
2021/09/05 02:03:30;;;;;;;59.38;29.27;;;17.50;99.90;;;;;;5014802;28;20560;-81
2021/09/05 02:05:56;;;;;;;66.93;29.95;;;17.50;99.90;;;;;;5015246;28;20646;-81
2021/09/05 02:08:22;;;;;;;69.72;30.42;;;17.50;99.90;;;;;;5013950;28;20199;-82
2021/09/05 02:10:47;;;;;;;54.88;29.70;;;17.60;99.90;;;;;;5013887;28;20644;-81
2021/09/05 02:13:13;;;;;;;60.75;31.00;;;17.40;99.90;;;;;;5013466;28;20533;-81
2021/09/05 02:15:40;;;;;;;65.32;30.65;;;17.30;99.90;;;;;;5013664;28;20168;-81
2021/09/05 02:18:05;;;;;;;70.82;30.63;;;17.40;99.90;;;;;;5014819;28;20192;-81
2021/09/05 02:20:31;;;;;;;69.60;31.40;;;17.40;99.90;;;;;;5013738;28;20208;-81
2021/09/05 02:22:57;;;;;;;57.58;29.88;;;17.30;99.90;;;;;;5012516;28;20169;-81
2021/09/05 02:25:22;;;;;;;61.20;29.20;;;17.30;99.90;;;;;;5014818;28;20172;-80
2021/09/05 02:27:48;;;;;;;65.82;31.45;;;17.50;99.90;;;;;;5013345;28;20185;-81
2021/09/05 02:30:14;;;;;;;58.90;30.40;;;17.40;99.90;;;;;;5014704;28;20168;-81
2021/09/05 02:32:40;;;;;;;61.58;29.85;;;17.40;99.90;;;;;;5013488;28;20180;-81
2021/09/05 02:35:06;;;;;;;61.20;29.92;;;17.40;99.90;;;;;;5014720;28;20164;-81
2021/09/05 02:37:32;;;;;;;68.07;31.30;;;17.40;99.90;;;;;;5014386;28;20193;-81
2021/09/05 02:39:58;;;;;;;76.50;32.65;;;17.40;99.90;;;;;;5014335;28;20211;-81
2021/09/05 02:42:24;;;;;;;60.08;28.80;;;17.40;99.90;;;;;;5014740;28;20165;-81
2021/09/05 02:44:50;;;;;;;69.40;30.95;;;17.30;99.90;;;;;;5013322;28;20255;-81
2021/09/05 02:47:15;;;;;;;69.18;31.88;;;17.50;99.90;;;;;;5013400;28;21282;-81
2021/09/05 02:49:41;;;;;;;63.65;30.95;;;17.60;99.90;;;;;;5013168;28;20612;-81
2021/09/05 02:52:09;;;;;;;68.57;31.40;;;17.60;99.90;;;;;;5014320;28;20180;-81
2021/09/05 02:54:38;;;;;;;66.22;32.50;;;17.70;99.90;;;;;;5013993;28;20176;-81
2021/09/05 02:57:04;;;;;;;73.10;30.60;;;17.70;99.90;;;;;;5012552;28;20175;-81
2021/09/05 02:59:29;;;;;;;68.88;32.70;;;17.80;99.90;;;;;;5012579;28;20223;-81
2021/09/05 03:01:55;;;;;;;67.97;30.60;;;17.70;99.90;;;;;;5012484;28;20603;-81
2021/09/05 03:04:21;;;;;;;74.22;31.67;;;17.70;99.90;;;;;;5013654;28;20183;-81
2021/09/05 03:06:46;;;;;;;59.97;28.50;;;17.40;99.90;;;;;;5012315;28;20203;-81
2021/09/05 03:09:12;;;;;;;65.88;31.73;;;17.20;99.90;;;;;;5013069;28;20185;-81
2021/09/05 03:11:37;;;;;;;61.28;29.55;;;17.20;99.90;;;;;;5013418;28;20183;-81
2021/09/05 03:14:03;;;;;;;64.28;29.58;;;17.00;99.90;;;;;;5012968;28;20200;-81
2021/09/05 03:16:29;;;;;;;66.10;30.08;;;16.90;99.90;;;;;;5012774;28;20226;-81
2021/09/05 03:18:54;;;;;;;65.35;32.17;;;16.80;99.90;;;;;;5012785;28;20196;-81
2021/09/05 03:21:20;;;;;;;63.90;32.15;;;16.70;99.90;;;;;;5013062;28;20203;-81
2021/09/05 03:23:45;;;;;;;67.85;31.85;;;16.70;99.90;;;;;;5012905;28;20226;-80
2021/09/05 03:26:11;;;;;;;73.65;32.05;;;16.70;99.90;;;;;;5013877;28;20659;-80
2021/09/05 03:28:36;;;;;;;68.22;31.17;;;16.60;99.90;;;;;;5013486;28;20189;-80
2021/09/05 03:31:02;;;;;;;69.78;32.22;;;16.60;99.90;;;;;;5012281;28;20173;-81
2021/09/05 03:33:28;;;;;;;70.35;31.95;;;16.80;99.90;;;;;;5013581;28;20629;-81
2021/09/05 03:35:55;;;;;;;67.35;32.83;;;16.60;99.90;;;;;;5013626;28;20172;-80
2021/09/05 03:38:20;;;;;;;67.82;31.60;;;16.50;99.90;;;;;;5012233;28;20192;-81
2021/09/05 03:40:46;;;;;;;73.20;30.20;;;16.50;99.90;;;;;;5012041;28;20259;-81
2021/09/05 03:43:12;;;;;;;69.88;30.55;;;16.50;99.90;;;;;;5013268;28;20528;-81
2021/09/05 03:45:37;;;;;;;66.50;31.45;;;16.70;99.90;;;;;;5012098;28;20637;-81
2021/09/05 03:48:03;;;;;;;68.40;31.17;;;16.60;99.90;;;;;;5013691;28;20184;-81
2021/09/05 03:50:29;;;;;;;66.25;32.22;;;16.60;99.90;;;;;;5012176;28;20655;-81
2021/09/05 03:52:55;;;;;;;68.22;32.25;;;16.60;99.90;;;;;;5011797;28;20169;-81
2021/09/05 03:55:20;;;;;;;71.82;31.98;;;16.70;99.90;;;;;;5013228;28;20214;-81
2021/09/05 03:57:46;;;;;;;73.38;31.80;;;16.60;99.90;;;;;;5011995;28;20258;-81
2021/09/05 04:00:12;;;;;;;66.60;31.20;;;16.50;99.90;;;;;;5011906;28;20215;-81
2021/09/05 04:02:38;;;;;;;71.10;31.50;;;16.30;99.90;;;;;;5011994;28;20180;-81
2021/09/05 04:05:06;;;;;;;64.32;30.00;;;16.30;99.90;;;;;;5012063;28;20176;-82
2021/09/05 04:07:34;;;;;;;64.65;30.25;;;16.30;99.90;;;;;;5012045;28;20189;-82
2021/09/05 04:10:08;;;;;;;68.60;30.58;;;16.30;99.90;;;;;;5012939;28;20656;-81
2021/09/05 04:12:38;;;;;;;69.07;29.70;;;16.20;99.90;;;;;;5012447;28;20260;-81
2021/09/05 04:15:05;;;;;;;63.78;30.80;;;16.20;99.90;;;;;;5013269;28;20177;-80
2021/09/05 04:17:31;;;;;;;66.10;29.85;;;16.20;99.90;;;;;;5011595;28;20200;-81
2021/09/05 04:19:56;;;;;;;65.47;30.20;;;16.30;99.90;;;;;;5012550;28;20227;-81
2021/09/05 04:22:22;;;;;;;66.72;31.50;;;16.30;99.90;;;;;;5011542;28;20260;-81
2021/09/05 04:24:49;;;;;;;71.93;31.17;;;16.40;99.90;;;;;;5011408;28;20235;-79
2021/09/05 04:27:15;;;;;;;77.28;32.38;;;16.20;99.90;;;;;;5012322;28;20640;-81
2021/09/05 04:29:40;;;;;;;63.25;30.40;;;16.20;99.90;;;;;;5011307;28;20195;-81
2021/09/05 04:32:06;;;;;;;73.15;31.52;;;16.20;99.90;;;;;;5012741;28;20168;-80
2021/09/05 04:34:32;;;;;;;71.13;32.72;;;15.90;99.90;;;;;;5011408;28;20172;-80
2021/09/05 04:36:58;;;;;;;55.85;28.48;;;15.90;99.90;;;;;;5011422;28;20227;-81
2021/09/05 04:39:23;;;;;;;64.72;30.33;;;15.90;99.90;;;;;;5011392;28;20203;-80
2021/09/05 04:41:49;;;;;;;68.47;30.30;;;15.90;99.90;;;;;;5011033;28;20207;-81
2021/09/05 04:44:14;;;;;;;57.50;29.17;;;15.90;99.90;;;;;;5013045;28;20208;-81
2021/09/05 04:46:40;;;;;;;55.58;29.30;;;16.00;99.90;;;;;;5013950;28;20168;-80
2021/09/05 04:49:06;;;;;;;63.92;29.25;;;16.10;99.90;;;;;;5016126;28;20188;-80
2021/09/05 04:51:32;;;;;;;66.35;29.45;;;16.10;99.90;;;;;;5016002;28;20184;-80
2021/09/05 04:53:57;;;;;;;63.17;29.27;;;16.00;99.90;;;;;;5015957;28;20172;-80
2021/09/05 04:56:23;;;;;;;63.42;30.58;;;15.90;99.90;;;;;;5014527;28;20168;-81
2021/09/05 04:58:49;;;;;;;61.38;30.13;;;15.90;99.90;;;;;;5016156;28;20187;-81
2021/09/05 05:01:15;;;;;;;61.47;28.10;;;15.90;99.90;;;;;;5014659;28;20216;-81
2021/09/05 05:03:40;;;;;;;70.28;29.30;;;15.80;99.90;;;;;;5014945;28;20673;-80
2021/09/05 05:06:07;;;;;;;60.03;28.20;;;15.80;99.90;;;;;;5014768;28;20208;-80
2021/09/05 05:08:33;;;;;;;64.18;29.60;;;16.00;99.90;;;;;;5014636;28;20611;-80
2021/09/05 05:10:59;;;;;;;68.93;31.48;;;16.20;99.90;;;;;;5015834;28;20274;-81
2021/09/05 05:13:26;;;;;;;59.85;28.35;;;16.20;99.90;;;;;;5015653;28;20252;-80
2021/09/05 05:15:52;;;;;;;57.08;27.95;;;16.00;99.90;;;;;;5015933;28;20160;-81
2021/09/05 05:18:18;;;;;;;72.72;31.88;;;15.90;99.90;;;;;;5016004;28;20212;-80
2021/09/05 05:20:43;;;;;;;64.95;30.27;;;15.90;99.90;;;;;;5015752;28;20212;-81
2021/09/05 05:23:09;;;;;;;63.45;29.77;;;16.00;99.90;;;;;;5014470;28;20173;-80
2021/09/05 05:25:34;;;;;;;73.13;31.70;;;15.80;99.90;;;;;;5015432;28;20181;-81
2021/09/05 05:28:00;;;;;;;62.17;28.33;;;16.10;99.90;;;;;;5014222;28;20184;-81
2021/09/05 05:30:26;;;;;;;61.13;29.08;;;16.20;99.90;;;;;;5014447;28;20169;-81
2021/09/05 05:32:51;;;;;;;64.80;30.67;;;16.10;99.90;;;;;;5014237;28;20164;-81
2021/09/05 05:35:17;;;;;;;65.88;29.83;;;16.10;99.90;;;;;;5014364;28;20540;-81
2021/09/05 05:37:42;;;;;;;62.63;29.27;;;16.10;99.90;;;;;;5014906;28;20193;-81
2021/09/05 05:40:09;;;;;;;60.70;28.27;;;16.10;99.90;;;;;;5015230;28;20235;-81
2021/09/05 05:42:35;;;;;;;58.42;27.65;;;16.20;99.90;;;;;;5014163;28;20172;-81
2021/09/05 05:45:00;;;;;;;59.33;30.15;;;16.30;99.90;;;;;;5015208;28;20161;-82
2021/09/05 05:47:28;;;;;;;56.88;28.48;;;16.20;99.90;;;;;;5015384;28;20197;-81
2021/09/05 05:49:54;;;;;;;59.20;28.20;;;16.30;99.90;;;;;;5015116;28;20165;-80
2021/09/05 05:52:20;;;;;;;59.38;28.17;;;16.40;99.90;;;;;;5014840;28;20531;-80
2021/09/05 05:54:46;;;;;;;60.97;28.25;;;16.50;99.90;;;;;;5013482;28;20207;-81
2021/09/05 05:57:11;;;;;;;55.53;27.58;;;16.70;99.90;;;;;;5013827;28;20223;-80
2021/09/05 05:59:38;;;;;;;54.70;28.15;;;16.80;99.90;;;;;;5012714;28;20291;-80
2021/09/05 06:02:04;;;;;;;56.20;26.60;;;16.70;99.90;;;;;;5014835;28;20570;-80
2021/09/05 06:04:29;;;;;;;50.38;27.98;;;16.70;99.90;;;;;;5013211;28;20203;-80
2021/09/05 06:06:55;;;;;;;55.42;28.65;;;16.60;99.90;;;;;;5014644;28;20172;-81
2021/09/05 06:09:21;;;;;;;56.90;28.45;;;16.50;99.90;;;;;;5014817;28;20600;-80
2021/09/05 06:11:47;;;;;;;57.83;28.63;;;16.50;99.90;;;;;;5013287;28;20276;-80
2021/09/05 06:14:12;;;;;;;60.40;28.67;;;16.80;99.90;;;;;;5013158;28;20204;-80
2021/09/05 06:16:38;;;;;;;49.38;27.17;;;16.60;99.90;;;;;;5014484;28;20176;-78
2021/09/05 06:19:04;;;;;;;61.83;27.60;;;16.60;99.90;;;;;;5012981;28;20200;-79
2021/09/05 06:21:30;;;;;;;49.53;27.48;;;16.60;99.90;;;;;;5014525;28;20176;-78
2021/09/05 06:23:56;;;;;;;58.88;28.05;;;16.60;99.90;;;;;;5014423;28;20179;-77
2021/09/05 06:26:22;;;;;;;56.90;27.65;;;16.50;99.90;;;;;;5013105;28;20184;-81
2021/09/05 06:28:48;;;;;;;57.97;27.77;;;16.40;99.90;;;;;;5014498;28;20335;-80
2021/09/05 06:31:13;;;;;;;51.50;27.52;;;16.70;99.90;;;;;;5014172;28;20175;-78
2021/09/05 06:33:39;;;;;;;55.25;28.13;;;16.70;99.90;;;;;;5014123;28;20169;-79
2021/09/05 06:36:05;;;;;;;49.45;27.20;;;16.70;99.90;;;;;;5014133;28;20161;-79
2021/09/05 06:38:30;;;;;;;50.33;26.73;;;16.70;99.90;;;;;;5012518;28;20274;-79
2021/09/05 06:40:56;;;;;;;54.13;27.35;;;16.70;99.90;;;;;;5012289;28;20282;-80
2021/09/05 06:43:22;;;;;;;55.38;27.42;;;16.70;99.90;;;;;;5012615;28;20173;-79
2021/09/05 06:45:47;;;;;;;54.72;27.27;;;16.80;99.90;;;;;;5012704;28;20172;-79
2021/09/05 06:48:13;;;;;;;51.72;26.05;;;17.10;99.90;;;;;;5012535;28;20668;-79
2021/09/05 06:50:39;;;;;;;47.15;26.42;;;17.10;99.90;;;;;;5013678;28;20223;-81
2021/09/05 06:53:04;;;;;;;46.45;25.10;;;17.20;99.90;;;;;;5013954;28;20227;-78
2021/09/05 06:55:30;;;;;;;52.00;26.48;;;17.40;99.90;;;;;;5013475;28;20165;-79
2021/09/05 06:57:56;;;;;;;50.78;27.27;;;17.60;99.90;;;;;;5015776;28;20548;-81
2021/09/05 07:00:21;;;;;;;45.67;26.67;;;17.50;99.90;;;;;;5013827;28;20216;-80
2021/09/05 07:02:47;;;;;;;48.58;27.38;;;17.50;99.90;;;;;;5014389;28;20233;-81
2021/09/05 07:05:13;;;;;;;52.97;27.13;;;17.40;99.90;;;;;;5013223;28;20183;-80
2021/09/05 07:07:38;;;;;;;48.50;26.77;;;17.30;99.90;;;;;;5014993;28;20196;-81
2021/09/05 07:10:05;;;;;;;49.90;27.63;;;17.30;99.90;;;;;;5017386;28;20620;-78
2021/09/05 07:12:30;;;;;;;54.42;27.30;;;17.40;99.90;;;;;;5014539;28;20533;-78
2021/09/05 07:14:56;;;;;;;51.58;26.95;;;17.50;99.90;;;;;;5012236;28;20168;-80
2021/09/05 07:17:21;;;;;;;51.08;27.00;;;17.60;99.90;;;;;;5010794;28;20196;-82
2021/09/05 07:19:47;;;;;;;51.80;27.88;;;17.70;99.90;;;;;;5011400;28;20211;-80
2021/09/05 07:22:13;;;;;;;50.47;27.45;;;17.70;99.90;;;;;;5013342;28;20176;-80
2021/09/05 07:24:39;;;;;;;50.20;26.40;;;17.60;99.90;;;;;;5012782;28;20180;-80
2021/09/05 07:27:04;;;;;;;55.85;28.10;;;17.60;99.90;;;;;;5012779;28;20176;-80
2021/09/05 07:29:30;;;;;;;68.45;28.67;;;17.70;99.90;;;;;;5022670;28;20224;-79
2021/09/05 07:31:55;;;;;;;43.90;27.23;;;17.70;99.90;;;;;;5034613;28;20169;-79
2021/09/05 07:34:21;;;;;;;49.83;27.35;;;18.00;99.90;;;;;;5035362;28;20196;-79
2021/09/05 07:36:47;;;;;;;52.13;27.08;;;18.00;99.90;;;;;;5019506;28;20517;-80
2021/09/05 07:39:12;;;;;;;49.80;28.00;;;18.00;99.90;;;;;;5013138;28;20216;-81
2021/09/05 07:41:38;;;;;;;55.28;28.58;;;18.00;99.90;;;;;;5012390;28;20211;-81
2021/09/05 07:44:04;;;;;;;52.95;29.40;;;18.10;99.90;;;;;;5014827;28;20160;-81
2021/09/05 07:46:30;;;;;;;54.05;27.85;;;18.10;99.90;;;;;;5012932;28;20215;-80
2021/09/05 07:48:56;;;;;;;48.90;27.27;;;18.10;99.90;;;;;;5013019;28;20194;-81
2021/09/05 07:51:24;;;;;;;47.67;28.45;;;18.20;99.90;;;;;;5012661;28;20165;-81
2021/09/05 07:53:52;;;;;;;57.72;27.60;;;18.30;99.90;;;;;;5012569;28;20173;-81
2021/09/05 07:56:17;;;;;;;51.22;27.80;;;18.30;99.90;;;;;;5012863;28;20252;-81
2021/09/05 07:58:43;;;;;;;55.40;27.00;;;18.30;99.90;;;;;;5012892;28;20648;-80
2021/09/05 08:01:09;;;;;;;50.03;27.80;;;18.40;99.90;;;;;;5013250;28;20211;-82
2021/09/05 08:03:39;;;;;;;45.13;26.98;;;18.60;99.90;;;;;;5013581;28;20168;-80
2021/09/05 08:06:05;;;;;;;46.03;28.23;;;18.70;99.90;;;;;;5011999;28;20212;-80
2021/09/05 08:08:30;;;;;;;46.92;24.92;;;18.80;99.90;;;;;;5011901;28;20215;-80
2021/09/05 08:10:56;;;;;;;51.70;27.30;;;19.00;99.90;;;;;;5013193;28;20558;-80
2021/09/05 08:13:22;;;;;;;56.83;26.50;;;19.20;99.90;;;;;;5013420;28;20669;-80
2021/09/05 08:15:47;;;;;;;47.63;26.58;;;19.30;99.90;;;;;;5012971;28;20168;-80
2021/09/05 08:18:13;;;;;;;42.47;24.60;;;19.30;99.90;;;;;;5013134;28;20657;-80
2021/09/05 08:20:39;;;;;;;46.88;25.60;;;19.30;99.90;;;;;;5011497;28;20247;-80
2021/09/05 08:23:04;;;;;;;52.00;25.42;;;19.50;99.90;;;;;;5016742;28;20172;-81
2021/09/05 08:25:30;;;;;;;47.58;24.95;;;19.80;99.90;;;;;;5015555;28;20230;-80
2021/09/05 08:27:56;;;;;;;43.67;23.13;;;20.00;99.90;;;;;;5016751;28;20192;-80
2021/09/05 08:30:22;;;;;;;44.78;25.02;;;20.30;99.90;;;;;;5015554;28;20519;-81
2021/09/05 08:32:47;;;;;;;46.15;23.77;;;20.60;99.90;;;;;;5015023;28;20164;-79
2021/09/05 08:35:13;;;;;;;41.50;24.00;;;20.60;99.90;;;;;;5016415;28;20239;-80
2021/09/05 08:37:39;;;;;;;45.58;24.00;;;20.70;99.90;;;;;;5014988;28;20303;-80
2021/09/05 08:40:06;;;;;;;36.60;23.33;;;20.60;99.90;;;;;;5015102;28;20209;-81
2021/09/05 08:42:33;;;;;;;43.15;24.08;;;20.70;99.90;;;;;;5014979;28;20263;-81
2021/09/05 08:44:59;;;;;;;41.90;24.05;;;21.00;99.90;;;;;;5016393;28;20955;-86
2021/09/05 08:47:31;;;;;;;54.25;24.92;;;21.40;99.90;;;;;;5016375;28;20212;-81
2021/09/05 08:49:57;;;;;;;41.30;23.30;;;21.40;99.90;;;;;;5013179;28;20696;-81
2021/09/05 08:52:24;;;;;;;33.17;21.92;;;21.60;99.90;;;;;;5014662;28;20172;-81
2021/09/05 08:54:50;;;;;;;38.38;20.75;;;21.90;99.90;;;;;;5016451;28;20172;-81
2021/09/05 08:57:17;;;;;;;33.08;20.10;;;21.90;99.90;;;;;;5015969;28;20307;-82
2021/09/05 08:59:42;;;;;;;35.60;21.05;;;22.00;99.90;;;;;;5013048;28;20200;-82
2021/09/05 09:02:08;;;;;;;32.70;22.38;;;22.10;99.90;;;;;;5014228;28;20183;-82
2021/09/05 09:04:39;;;;;;;40.88;23.45;;;22.10;99.90;;;;;;5015750;28;20215;-82
2021/09/05 09:07:14;;;;;;;35.72;20.83;;;22.40;99.90;;;;;;5014515;28;20165;-81
2021/09/05 09:09:52;;;;;;;31.38;22.40;;;22.60;99.90;;;;;;5015850;28;20176;-84
2021/09/05 09:12:17;;;;;;;34.85;21.33;;;22.60;99.90;;;;;;5014013;28;20176;-84
2021/09/05 09:14:45;;;;;;;37.65;21.15;;;23.00;99.90;;;;;;5014934;28;20524;-83
2021/09/05 09:17:11;;;;;;;34.55;21.17;;;23.10;99.90;;;;;;5015404;28;20165;-84
2021/09/05 09:19:42;;;;;;;39.45;21.17;;;23.10;99.90;;;;;;5014487;28;20307;-84
2021/09/05 09:22:19;;;;;;;33.65;20.05;;;23.10;99.90;;;;;;5015821;28;20592;-83
2021/09/05 09:24:45;;;;;;;35.20;20.48;;;23.00;99.90;;;;;;5047473;28;20203;-83
2021/09/05 09:27:12;;;;;;;33.03;18.27;;;22.60;99.90;;;;;;5047479;28;20657;-82
2021/09/05 09:29:38;;;;;;;25.52;16.95;;;22.50;99.90;;;;;;5014093;28;20313;-84
2021/09/05 09:32:05;;;;;;;29.75;19.67;;;22.50;99.90;;;;;;5013800;28;20524;-83
2021/09/05 09:34:48;;;;;;;29.20;16.67;;;22.50;99.90;;;;;;5014155;28;20187;-82
2021/09/05 09:37:15;;;;;;;29.40;19.23;;;22.40;99.90;;;;;;5013169;28;20576;-82
2021/09/05 09:39:49;;;;;;;30.67;19.67;;;22.30;99.90;;;;;;5013404;28;20184;-82
2021/09/05 09:42:36;;;;;;;29.83;20.02;;;22.40;99.90;;;;;;5014282;28;20227;-83
2021/09/05 09:45:08;;;;;;;28.77;18.92;;;22.50;99.90;;;;;;5014530;28;20168;-83
2021/09/05 09:47:42;;;;;;;28.08;17.20;;;22.40;99.90;;;;;;5014586;28;20203;-83
2021/09/05 09:50:09;;;;;;;27.13;18.15;;;22.50;99.90;;;;;;5014101;28;20206;-83
2021/09/05 09:52:34;;;;;;;31.85;17.83;;;22.70;99.90;;;;;;5015797;28;20161;-82
2021/09/05 09:55:00;;;;;;;26.23;17.38;;;22.60;99.90;;;;;;5014285;28;20179;-82
2021/09/05 09:57:26;;;;;;;32.53;18.42;;;22.50;99.90;;;;;;5013864;28;20595;-81
2021/09/05 09:59:52;;;;;;;31.63;15.90;;;22.70;99.90;;;;;;5013659;28;20733;-81
2021/09/05 10:02:20;;;;;;;27.98;16.98;;;22.70;99.90;;;;;;5014182;28;20267;-81
2021/09/05 10:04:48;;;;;;;23.88;16.88;;;22.70;99.90;;;;;;5015034;28;20180;-80
2021/09/05 10:07:29;;;;;;;30.27;17.48;;;22.60;99.90;;;;;;5013888;28;20521;-81
2021/09/05 10:09:55;;;;;;;23.70;15.75;;;22.60;99.90;;;;;;5014199;28;20199;-82
2021/09/05 10:12:21;;;;;;;25.90;16.05;;;22.70;99.90;;;;;;5014118;28;20203;-82
2021/09/05 10:14:55;;;;;;;20.95;14.85;;;22.80;99.90;;;;;;5013520;28;20168;-81
2021/09/05 10:17:22;;;;;;;20.83;15.02;;;22.80;99.90;;;;;;5014846;28;20211;-82
2021/09/05 10:19:49;;;;;;;23.45;15.88;;;22.90;99.90;;;;;;5015868;28;20287;-81
2021/09/05 10:22:20;;;;;;;23.95;16.58;;;23.10;99.90;;;;;;5015563;28;20191;-80
2021/09/05 10:24:51;;;;;;;22.55;16.33;;;23.30;99.90;;;;;;5014207;28;20173;-82
2021/09/05 10:27:34;;;;;;;28.95;15.80;;;23.40;99.90;;;;;;5014437;28;20188;-88
2021/09/05 10:30:14;;;;;;;18.33;13.20;;;23.40;99.90;;;;;;5047694;28;20176;-83
2021/09/05 10:32:48;;;;;;;18.85;14.27;;;23.30;99.90;;;;;;5015777;28;20176;-89
2021/09/05 10:35:26;;;;;;;20.05;13.85;;;23.20;99.90;;;;;;5015236;28;20231;-89
2021/09/05 10:38:18;;;;;;;17.83;12.90;;;23.20;99.90;;;;;;5015321;28;20192;-88
2021/09/05 10:40:50;;;;;;;20.02;14.05;;;23.20;99.90;;;;;;5016084;28;20696;-87
2021/09/05 10:43:20;;;;;;;15.50;13.57;;;23.30;99.90;;;;;;5016753;28;20226;-88
2021/09/05 10:45:49;;;;;;;20.90;13.70;;;23.30;99.90;;;;;;5016924;28;20192;-86
2021/09/05 10:48:53;;;;;;;19.13;12.93;;;23.50;99.90;;;;;;5019562;28;20180;-86
2021/09/05 10:51:24;;;;;;;19.30;13.05;;;23.70;99.90;;;;;;5019484;28;20190;-84
2021/09/05 10:54:02;;;;;;;27.48;13.57;;;23.90;99.90;;;;;;5015781;28;20172;-84
2021/09/05 10:56:29;;;;;;;17.15;11.88;;;23.90;99.90;;;;;;5014572;28;20161;-83
2021/09/05 10:59:07;;;;;;;25.77;12.32;;;23.90;99.90;;;;;;5018321;28;20200;-84
2021/09/05 11:01:37;;;;;;;18.73;13.00;;;24.00;99.90;;;;;;5015838;28;20176;-86
2021/09/05 11:04:12;;;;;;;12.88;11.38;;;24.00;99.90;;;;;;5016838;28;20173;-84
2021/09/05 11:06:41;;;;;;;15.80;12.38;;;23.90;99.90;;;;;;5018948;28;20175;-84
2021/09/05 11:09:20;;;;;;;18.77;13.57;;;23.90;99.90;;;;;;5015749;28;20711;-84
2021/09/05 11:11:58;;;;;;;14.98;12.57;;;24.00;99.90;;;;;;5014750;28;20263;-87
2021/09/05 11:14:40;;;;;;;18.05;11.98;;;24.10;99.90;;;;;;5014477;28;20238;-85
2021/09/05 11:17:08;;;;;;;15.80;11.82;;;24.30;99.90;;;;;;5013812;28;20180;-84
2021/09/05 11:19:44;;;;;;;12.55;11.07;;;24.20;99.90;;;;;;5012968;28;20196;-86
2021/09/05 11:22:17;;;;;;;14.23;11.10;;;24.20;99.90;;;;;;5015077;28;20190;-87
2021/09/05 11:24:44;;;;;;;15.02;12.10;;;24.10;99.90;;;;;;5014233;28;20172;-85
2021/09/05 11:27:12;;;;;;;16.38;10.85;;;24.30;99.90;;;;;;5012935;28;20192;-83
2021/09/05 11:29:39;;;;;;;24.05;16.65;;;24.20;99.90;;;;;;5012858;28;20175;-85
2021/09/05 11:32:09;;;;;;;13.35;10.85;;;24.20;99.90;;;;;;5013157;28;20183;-84
2021/09/05 11:34:36;;;;;;;22.25;13.68;;;24.20;99.90;;;;;;5014596;28;20173;-84
2021/09/05 11:37:02;;;;;;;14.10;10.82;;;24.10;99.90;;;;;;5014107;28;20164;-83
2021/09/05 11:39:28;;;;;;;10.88;9.77;;;24.10;99.90;;;;;;5012700;28;20192;-83
2021/09/05 11:41:56;;;;;;;16.55;9.88;;;24.10;99.90;;;;;;5010743;28;20618;-83
2021/09/05 11:44:36;;;;;;;15.18;11.65;;;24.30;99.90;;;;;;5011060;28;20168;-87
2021/09/05 11:47:20;;;;;;;18.92;10.40;;;24.40;99.90;;;;;;5012765;28;20172;-82
2021/09/05 11:49:47;;;;;;;17.25;11.93;;;24.50;99.90;;;;;;5011934;28;20202;-84
2021/09/05 11:52:18;;;;;;;13.80;11.32;;;24.60;99.90;;;;;;5013304;28;20204;-82
2021/09/05 11:54:49;;;;;;;16.02;10.82;;;24.70;99.90;;;;;;5028881;28;20192;-83
2021/09/05 11:57:15;;;;;;;12.98;9.95;;;24.80;99.90;;;;;;5012080;28;20207;-83
2021/09/05 11:59:41;;;;;;;11.05;9.80;;;24.90;99.90;;;;;;5010631;28;20586;-82
2021/09/05 12:02:07;;;;;;;14.05;10.73;;;24.80;99.90;;;;;;5012273;28;20176;-82
2021/09/05 12:04:36;;;;;;;11.38;8.95;;;24.80;99.90;;;;;;5012572;28;20235;-83
2021/09/05 12:07:03;;;;;;;11.95;9.30;;;24.80;99.90;;;;;;5011813;28;20264;-82
2021/09/05 12:09:31;;;;;;;10.30;9.23;;;24.90;99.90;;;;;;5011375;28;20596;-83
2021/09/05 12:12:04;;;;;;;9.38;8.48;;;25.10;99.90;;;;;;4995757;28;20203;-83
2021/09/05 12:14:38;;;;;;;9.75;8.77;;;25.10;99.90;;;;;;5028263;28;20887;-83
2021/09/05 12:17:20;;;;;;;10.40;8.85;;;25.00;99.90;;;;;;5012132;28;20569;-84
2021/09/05 12:19:54;;;;;;;10.75;8.10;;;25.00;99.90;;;;;;5013103;28;20271;-84
2021/09/05 12:22:20;;;;;;;11.30;8.30;;;25.00;99.90;;;;;;5012892;28;20179;-82
2021/09/05 12:24:54;;;;;;;15.10;7.22;;;25.00;99.90;;;;;;5027967;28;20621;-85
2021/09/05 12:27:20;;;;;;;7.53;6.82;;;24.90;99.90;;;;;;5013032;28;20234;-84
2021/09/05 12:29:46;;;;;;;8.88;8.07;;;24.90;99.90;;;;;;5029059;28;20617;-86